Time;durP1;ratioP1;P1;durP2;ratioP2;P2;SDS_P1;SDS_P2;PMS_P1;PMS_P2;Temp;Humidity;BMP_temperature;BMP_pressure;BME280_temperature;BME280_humidity;BME280_pressure;Samples;Min_cycle;Max_cycle;Signal;HPM_P1;HPM_P2
2023/05/28 00:00:36;;;;;;;15.90;9.20;;;;;;;8.07;65.77;97707.19;108868;1250;94456;-74
2023/05/28 00:03:25;;;;;;;21.10;8.70;;;;;;;8.02;65.80;97708.52;108875;1250;103723;-75
2023/05/28 00:05:53;;;;;;;13.10;8.30;;;;;;;7.98;65.82;97705.98;108932;1250;100377;-74
2023/05/28 00:08:21;;;;;;;13.50;8.60;;;;;;;7.95;65.81;97707.77;108840;1250;100062;-74
2023/05/28 00:10:49;;;;;;;18.60;8.90;;;;;;;7.86;65.84;97702.16;108892;1250;94236;-75
2023/05/28 00:13:18;;;;;;;9.80;7.40;;;;;;;7.81;66.02;97699.55;108960;1251;95213;-76
2023/05/28 00:15:46;;;;;;;14.00;8.00;;;;;;;7.81;66.17;97701.85;108697;1250;101957;-74
2023/05/28 00:18:14;;;;;;;15.00;7.60;;;;;;;7.80;66.15;97697.00;109017;1252;101125;-78
2023/05/28 00:20:42;;;;;;;13.60;7.20;;;;;;;7.79;66.25;97695.33;108897;1250;99002;-77
2023/05/28 00:23:10;;;;;;;11.80;7.60;;;;;;;7.79;66.27;97693.09;108874;1251;94911;-73
2023/05/28 00:25:38;;;;;;;11.60;7.50;;;;;;;7.74;66.22;97689.95;108670;1250;94589;-73
2023/05/28 00:28:06;;;;;;;12.90;7.50;;;;;;;7.69;66.28;97687.30;108657;1251;102300;-74
2023/05/28 00:30:35;;;;;;;15.20;8.00;;;;;;;7.61;66.28;97683.73;108679;1250;101281;-74
2023/05/28 00:33:03;;;;;;;10.80;7.30;;;;;;;7.57;66.46;97685.73;108911;1250;100076;-74
2023/05/28 00:35:31;;;;;;;12.90;7.60;;;;;;;7.54;66.51;97681.88;108898;1250;94389;-77
2023/05/28 00:37:59;;;;;;;11.30;7.90;;;;;;;7.52;66.63;97680.36;108839;1249;95292;-74
2023/05/28 00:40:27;;;;;;;38.30;18.50;;;;;;;7.50;66.65;97680.79;108944;1250;102332;-74
2023/05/28 00:42:55;;;;;;;20.20;10.00;;;;;;;7.44;66.66;97682.20;108907;1250;101318;-74
2023/05/28 00:45:23;;;;;;;16.50;9.00;;;;;;;7.41;66.66;97677.23;108905;1250;98711;-74
2023/05/28 00:47:51;;;;;;;16.70;7.80;;;;;;;7.37;66.73;97670.15;108874;1250;94253;-74
2023/05/28 00:50:20;;;;;;;15.20;7.90;;;;;;;7.34;66.79;97672.92;108705;1253;95983;-74
2023/05/28 00:52:50;;;;;;;13.00;7.80;;;;;;;7.31;66.89;97672.34;108702;1253;102432;-74
2023/05/28 00:55:18;;;;;;;13.50;7.70;;;;;;;7.28;66.92;97675.59;108738;1257;101284;-74
2023/05/28 00:57:48;;;;;;;12.90;6.70;;;;;;;7.26;67.02;97675.69;108620;1253;98392;-75
2023/05/28 01:00:18;;;;;;;11.70;6.50;;;;;;;7.23;66.97;97675.09;108407;1253;94330;-74
2023/05/28 01:02:46;;;;;;;12.40;6.60;;;;;;;7.20;67.08;97679.45;108652;1253;94579;-74
2023/05/28 01:05:17;;;;;;;11.40;7.50;;;;;;;7.15;67.03;97673.79;108671;1253;101850;-74
2023/05/28 01:07:45;;;;;;;8.20;5.70;;;;;;;7.04;66.96;97668.83;108329;1253;100555;-76
2023/05/28 01:10:13;;;;;;;8.30;5.60;;;;;;;6.98;67.07;97670.52;108574;1253;100035;-74
2023/05/28 01:12:44;;;;;;;9.80;6.00;;;;;;;6.97;67.19;97666.15;108665;1253;94328;-74
2023/05/28 01:15:12;;;;;;;12.20;6.70;;;;;;;6.95;67.24;97661.67;108399;1254;94609;-73
2023/05/28 01:17:40;;;;;;;12.00;6.10;;;;;;;6.90;67.30;97659.55;108644;1253;112078;-74
2023/05/28 01:20:12;;;;;;;13.20;6.70;;;;;;;6.83;67.39;97657.73;108743;1253;101616;-76
2023/05/28 01:22:50;;;;;;;10.70;5.70;;;;;;;6.80;67.39;97657.67;108905;1249;99442;-74
2023/05/28 01:25:19;;;;;;;11.40;6.60;;;;;;;6.73;67.27;97656.03;108900;1250;94931;-76
2023/05/28 01:27:47;;;;;;;11.40;6.70;;;;;;;6.66;67.42;97656.32;108879;1250;94368;-77
2023/05/28 01:30:15;;;;;;;10.70;6.30;;;;;;;6.66;67.60;97651.98;108916;1250;102135;-75
2023/05/28 01:32:44;;;;;;;9.60;6.20;;;;;;;6.66;67.55;97651.69;108912;1250;101419;-74
2023/05/28 01:35:13;;;;;;;9.60;7.00;;;;;;;6.65;67.59;97647.91;108866;1250;99612;-74
2023/05/28 01:37:45;;;;;;;11.00;7.00;;;;;;;6.62;67.61;97645.88;108866;1250;94238;-77
2023/05/28 01:40:16;;;;;;;9.70;6.30;;;;;;;6.59;67.67;97646.06;108880;1250;94511;-77
2023/05/28 01:42:46;;;;;;;11.50;6.80;;;;;;;6.58;67.71;97649.13;108927;1250;102366;-77
2023/05/28 01:45:15;;;;;;;11.50;6.50;;;;;;;6.57;67.78;97645.97;108695;1250;101582;-74
2023/05/28 01:47:44;;;;;;;15.10;6.50;;;;;;;6.56;67.78;97645.08;108936;1250;100088;-74
2023/05/28 01:50:12;;;;;;;13.10;7.10;;;;;;;6.53;67.77;97644.66;108898;1250;94455;-74
2023/05/28 01:52:40;;;;;;;18.90;8.80;;;;;;;6.50;67.79;97642.85;108942;1250;94411;-73
2023/05/28 01:55:11;;;;;;;125.80;49.00;;;;;;;6.45;67.82;97641.52;108923;1250;101906;-77
2023/05/28 01:57:39;;;;;;;71.70;32.50;;;;;;;6.35;68.01;97641.22;108942;1250;101493;-74
2023/05/28 02:00:09;;;;;;;44.10;18.60;;;;;;;6.32;68.05;97643.41;108566;1250;100179;-75
2023/05/28 02:02:37;;;;;;;26.00;12.40;;;;;;;6.31;68.06;97648.17;108866;1250;94253;-74
2023/05/28 02:05:06;;;;;;;21.30;8.80;;;;;;;6.29;68.06;97646.29;108931;1250;94499;-76
2023/05/28 02:07:34;;;;;;;10.50;6.80;;;;;;;6.25;68.11;97641.54;108886;1250;102165;-74
2023/05/28 02:10:02;;;;;;;9.70;6.10;;;;;;;6.21;68.10;97635.79;108933;1251;101500;-78
2023/05/28 02:12:30;;;;;;;12.00;6.20;;;;;;;6.19;68.13;97637.61;108906;1250;99908;-74
2023/05/28 02:14:59;;;;;;;10.20;6.20;;;;;;;6.16;68.12;97636.33;108910;1250;94184;-74
2023/05/28 02:17:27;;;;;;;9.90;6.60;;;;;;;6.13;68.14;97633.98;108948;1249;95643;-76
2023/05/28 02:19:55;;;;;;;11.30;6.00;;;;;;;6.11;68.24;97625.48;108935;1250;101031;-75
2023/05/28 02:22:23;;;;;;;12.20;7.10;;;;;;;6.10;68.40;97629.27;108552;1251;100506;-74
2023/05/28 02:24:51;;;;;;;8.50;5.60;;;;;;;6.10;68.47;97625.09;108922;1250;98514;-76
2023/05/28 02:27:20;;;;;;;12.40;6.60;;;;;;;6.08;68.52;97624.39;108926;1250;94201;-74
2023/05/28 02:29:48;;;;;;;10.40;5.90;;;;;;;6.05;68.59;97626.02;108906;1250;94599;-75
2023/05/28 02:32:16;;;;;;;9.60;5.90;;;;;;;6.00;68.41;97626.41;108898;1250;101858;-74
2023/05/28 02:34:44;;;;;;;10.40;6.50;;;;;;;5.90;68.41;97622.00;108945;1250;101272;-75
2023/05/28 02:37:12;;;;;;;8.10;5.70;;;;;;;5.87;68.55;97619.86;108717;1251;99991;-74
2023/05/28 02:39:41;;;;;;;9.20;5.60;;;;;;;5.86;68.67;97621.45;108767;1253;94514;-74
2023/05/28 02:42:09;;;;;;;9.90;5.50;;;;;;;5.85;68.73;97625.07;108336;1251;94961;-74
2023/05/28 02:44:37;;;;;;;10.80;6.00;;;;;;;5.85;68.80;97627.17;108827;1251;102074;-76
2023/05/28 02:47:05;;;;;;;10.90;6.70;;;;;;;5.87;68.85;97624.70;108867;1251;101175;-74
2023/05/28 02:49:33;;;;;;;10.80;5.40;;;;;;;5.86;68.89;97621.89;108767;1252;100080;-74
2023/05/28 02:52:01;;;;;;;7.90;4.90;;;;;;;5.84;68.86;97620.35;108814;1251;94239;-75
2023/05/28 02:54:29;;;;;;;13.00;6.00;;;;;;;5.83;68.77;97620.36;108828;1252;94883;-77
2023/05/28 02:56:59;;;;;;;18.00;7.70;;;;;;;5.80;68.86;97623.13;108862;1251;102106;-74
2023/05/28 02:59:27;;;;;;;41.30;22.30;;;;;;;5.78;68.88;97621.11;108779;1251;101145;-74
2023/05/28 03:01:55;;;;;;;58.10;25.50;;;;;;;5.76;69.00;97617.77;108800;1251;100078;-74
2023/05/28 03:04:24;;;;;;;28.70;15.90;;;;;;;5.73;69.15;97616.10;108779;1251;94239;-73
2023/05/28 03:06:53;;;;;;;18.50;10.20;;;;;;;5.74;69.23;97614.76;108776;1251;94880;-77
2023/05/28 03:09:21;;;;;;;18.40;9.20;;;;;;;5.73;69.17;97611.30;108523;1251;101304;-76
2023/05/28 03:11:49;;;;;;;22.60;10.50;;;;;;;5.71;69.15;97613.98;108821;1251;100987;-74
2023/05/28 03:14:17;;;;;;;17.10;7.80;;;;;;;5.69;69.21;97611.05;108775;1251;100186;-74
2023/05/28 03:16:45;;;;;;;12.90;6.10;;;;;;;5.66;69.40;97613.40;108801;1251;94382;-77
2023/05/28 03:19:13;;;;;;;9.50;6.10;;;;;;;5.66;69.48;97615.14;108795;1251;94668;-74
2023/05/28 03:21:41;;;;;;;11.30;6.00;;;;;;;5.66;69.39;97609.91;108806;1255;102088;-74
2023/05/28 03:24:10;;;;;;;11.00;5.60;;;;;;;5.67;69.52;97605.55;108802;1251;101480;-78
2023/05/28 03:26:38;;;;;;;16.30;5.50;;;;;;;5.67;69.54;97605.23;108599;1254;99974;-77
2023/05/28 03:29:06;;;;;;;8.40;5.20;;;;;;;5.67;69.60;97606.46;108764;1251;94193;-75
2023/05/28 03:31:44;;;;;;;10.40;6.10;;;;;;;5.67;69.58;97603.63;108766;1251;94579;-74
2023/05/28 03:34:12;;;;;;;7.80;5.30;;;;;;;5.65;69.67;97601.28;108856;1251;102378;-74
2023/05/28 03:36:41;;;;;;;7.40;5.20;;;;;;;5.66;69.68;97602.63;108778;1253;101197;-74
2023/05/28 03:39:10;;;;;;;8.50;5.30;;;;;;;5.68;69.79;97605.43;108894;1250;100092;-76
2023/05/28 03:41:39;;;;;;;8.10;5.40;;;;;;;5.69;69.77;97601.41;108909;1250;94292;-78
2023/05/28 03:44:08;;;;;;;8.80;5.10;;;;;;;5.70;69.91;97602.02;108902;1251;94331;-74
2023/05/28 03:46:36;;;;;;;9.50;5.40;;;;;;;5.71;70.03;97606.63;108723;1251;101913;-74
2023/05/28 03:49:04;;;;;;;9.20;5.40;;;;;;;5.74;70.04;97608.86;108914;1250;101479;-74
2023/05/28 03:51:32;;;;;;;9.10;5.80;;;;;;;5.76;70.14;97610.06;108617;1251;100102;-75
2023/05/28 03:54:01;;;;;;;11.30;5.90;;;;;;;5.78;70.17;97615.95;108843;1253;94487;-74
2023/05/28 03:56:30;;;;;;;10.30;5.70;;;;;;;5.79;70.23;97614.82;108921;1250;94609;-77
2023/05/28 03:58:58;;;;;;;11.90;6.40;;;;;;;5.82;70.36;97615.94;108572;1251;102395;-73
2023/05/28 04:01:26;;;;;;;11.90;6.40;;;;;;;5.86;70.46;97618.88;108926;1249;101189;-74
2023/05/28 04:03:55;;;;;;;11.00;5.60;;;;;;;5.90;70.56;97617.91;108876;1250;100492;-76
2023/05/28 04:06:24;;;;;;;10.20;5.90;;;;;;;5.93;70.58;97619.13;108915;1251;94396;-75
2023/05/28 04:08:53;;;;;;;10.60;5.80;;;;;;;5.96;70.65;97621.27;108912;1249;94473;-77
2023/05/28 04:11:24;;;;;;;9.50;5.90;;;;;;;6.00;70.64;97619.19;108788;1250;102267;-74
2023/05/28 04:13:52;;;;;;;11.50;5.70;;;;;;;6.05;70.68;97613.81;108881;1250;108631;-74
2023/05/28 04:16:23;;;;;;;10.80;6.00;;;;;;;6.10;70.92;97610.78;108863;1249;100196;-74
2023/05/28 04:18:52;;;;;;;12.20;6.50;;;;;;;6.17;70.93;97610.73;108921;1250;94273;-74
2023/05/28 04:21:23;;;;;;;12.40;7.40;;;;;;;6.23;71.07;97610.02;108931;1251;95307;-75
2023/05/28 04:23:51;;;;;;;10.50;6.90;;;;;;;6.29;71.11;97608.94;108899;1250;102270;-74
2023/05/28 04:26:22;;;;;;;16.00;7.00;;;;;;;6.34;71.19;97603.63;108900;1250;101591;-74
2023/05/28 04:28:53;;;;;;;14.10;7.80;;;;;;;6.40;71.21;97603.71;108846;1251;99959;-74
2023/05/28 04:31:21;;;;;;;16.20;7.50;;;;;;;6.46;71.19;97602.23;108594;1250;94318;-74
2023/05/28 04:33:50;;;;;;;16.60;11.20;;;;;;;6.53;71.31;97603.36;108901;1251;94681;-77
2023/05/28 04:36:18;;;;;;;23.70;15.70;;;;;;;6.59;71.37;97601.60;108899;1250;102407;-75
2023/05/28 04:38:47;;;;;;;19.80;14.40;;;;;;;6.65;71.43;97601.23;108893;1250;101257;-76
2023/05/28 04:41:16;;;;;;;18.80;11.70;;;;;;;6.72;71.37;97600.55;108857;1251;99897;-77
2023/05/28 04:43:44;;;;;;;12.10;6.70;;;;;;;6.78;71.39;97600.01;108866;1253;94228;-74
2023/05/28 04:46:13;;;;;;;13.50;6.20;;;;;;;6.84;71.43;97602.80;108924;1251;94577;-74
2023/05/28 04:48:41;;;;;;;10.20;5.80;;;;;;;6.92;71.46;97604.47;108900;1250;102263;-75
2023/05/28 04:51:09;;;;;;;10.40;6.30;;;;;;;6.99;71.35;97606.77;108886;1251;101448;-74
2023/05/28 04:53:37;;;;;;;9.80;5.40;;;;;;;7.08;71.39;97601.45;108839;1251;99433;-74
2023/05/28 04:56:06;;;;;;;12.00;5.60;;;;;;;7.18;71.31;97600.02;108838;1251;94504;-77
2023/05/28 04:58:34;;;;;;;10.50;5.90;;;;;;;7.28;71.19;97598.10;108377;1250;95010;-74
2023/05/28 05:01:04;;;;;;;16.20;6.00;;;;;;;7.37;71.13;97600.54;108887;1250;102224;-75
2023/05/28 05:03:32;;;;;;;12.90;6.20;;;;;;;7.46;71.01;97601.36;108742;1251;101238;-74
2023/05/28 05:06:01;;;;;;;14.50;5.80;;;;;;;7.56;70.88;97606.41;108842;1250;99935;-78
2023/05/28 05:08:29;;;;;;;11.40;6.60;;;;;;;7.66;70.70;97600.11;108861;1250;94586;-75
2023/05/28 05:10:57;;;;;;;15.10;6.50;;;;;;;7.72;70.66;97593.16;108539;1251;94651;-78
2023/05/28 05:13:25;;;;;;;15.90;6.60;;;;;;;7.81;70.71;97593.52;108920;1251;102185;-78
2023/05/28 05:15:54;;;;;;;12.30;6.20;;;;;;;7.89;70.66;97597.36;108902;1250;101303;-77
2023/05/28 05:18:22;;;;;;;9.30;5.80;;;;;;;7.96;70.61;97597.90;108880;1251;99726;-74
2023/05/28 05:20:50;;;;;;;11.60;5.90;;;;;;;8.03;70.68;97596.90;108844;1251;94217;-77
2023/05/28 05:23:18;;;;;;;10.00;6.40;;;;;;;8.09;70.85;97595.27;108925;1250;94422;-78
2023/05/28 05:25:46;;;;;;;9.20;5.90;;;;;;;8.14;71.10;97593.27;108911;1250;102061;-74
2023/05/28 05:28:14;;;;;;;10.10;6.20;;;;;;;8.21;71.29;97589.55;108896;1251;101333;-75
2023/05/28 05:30:42;;;;;;;11.80;6.00;;;;;;;8.28;71.34;97589.55;108868;1250;99731;-76
2023/05/28 05:33:10;;;;;;;11.10;6.30;;;;;;;8.36;71.21;97585.01;108843;1250;94504;-75
2023/05/28 05:35:38;;;;;;;10.40;6.80;;;;;;;8.45;71.24;97589.61;108903;1251;94420;-77
2023/05/28 05:38:07;;;;;;;12.30;6.70;;;;;;;8.55;71.21;97585.73;108890;1251;102510;-74
2023/05/28 05:40:35;;;;;;;12.50;6.50;;;;;;;8.63;71.17;97582.89;108901;1251;101310;-74
2023/05/28 05:43:03;;;;;;;13.60;6.70;;;;;;;8.71;71.06;97581.59;108873;1250;99474;-74
2023/05/28 05:45:31;;;;;;;9.60;5.80;;;;;;;8.80;70.94;97586.02;108643;1251;94266;-75
2023/05/28 05:47:59;;;;;;;13.90;6.00;;;;;;;8.88;71.05;97582.72;108875;1250;94528;-77
2023/05/28 05:50:27;;;;;;;9.70;6.40;;;;;;;8.97;71.01;97581.12;108597;1251;101536;-74
2023/05/28 05:52:56;;;;;;;9.50;5.70;;;;;;;9.09;70.90;97579.41;108880;1250;101399;-74
2023/05/28 05:55:24;;;;;;;11.10;5.50;;;;;;;9.20;70.70;97578.48;108588;1250;99761;-76
2023/05/28 05:57:52;;;;;;;9.40;5.60;;;;;;;9.31;70.36;97576.72;108610;1254;94330;-74
2023/05/28 06:00:20;;;;;;;10.70;5.10;;;;;;;9.43;70.09;97576.45;108886;1251;94528;-78
2023/05/28 06:02:48;;;;;;;8.20;5.40;;;;;;;9.53;69.88;97576.30;108638;1250;102249;-74
2023/05/28 06:05:16;;;;;;;9.50;5.40;;;;;;;9.64;69.73;97569.99;108921;1249;101343;-74
2023/05/28 06:07:45;;;;;;;10.20;5.30;;;;;;;9.76;69.51;97568.59;108844;1250;99940;-74
2023/05/28 06:10:13;;;;;;;10.80;5.90;;;;;;;9.88;69.27;97569.95;108882;1251;94367;-75
2023/05/28 06:12:41;;;;;;;10.90;5.60;;;;;;;9.98;69.15;97564.14;108648;1250;94802;-77
2023/05/28 06:15:09;;;;;;;10.20;5.70;;;;;;;10.10;69.21;97559.31;108855;1250;100953;-74
2023/05/28 06:17:37;;;;;;;13.30;5.40;;;;;;;10.22;69.13;97562.75;108924;1249;101422;-74
2023/05/28 06:20:07;;;;;;;8.60;5.40;;;;;;;10.32;69.01;97559.84;108876;1249;99686;-74
2023/05/28 06:22:35;;;;;;;10.00;5.30;;;;;;;10.45;68.88;97558.10;108607;1250;94392;-76
2023/05/28 06:25:04;;;;;;;11.70;5.20;;;;;;;10.57;69.09;97557.08;108686;1249;94557;-76
2023/05/28 06:27:32;;;;;;;7.20;5.10;;;;;;;10.70;68.78;97556.35;108627;1250;110704;-75
2023/05/28 06:30:00;;;;;;;13.00;5.00;;;;;;;10.84;68.85;97554.14;108887;1249;101252;-78
2023/05/28 06:32:28;;;;;;;8.90;5.10;;;;;;;10.96;68.45;97554.59;108888;1249;99616;-74
2023/05/28 06:34:57;;;;;;;10.20;5.50;;;;;;;11.08;68.05;97554.85;108848;1250;94391;-78
2023/05/28 06:37:25;;;;;;;15.80;5.20;;;;;;;11.21;67.81;97558.41;108866;1250;95237;-77
2023/05/28 06:39:53;;;;;;;12.20;5.10;;;;;;;11.32;67.54;97555.67;108691;1251;103545;-74
2023/05/28 06:42:21;;;;;;;8.10;4.70;;;;;;;11.45;67.47;97550.98;108731;1250;101055;-75
2023/05/28 06:44:50;;;;;;;10.40;5.30;;;;;;;11.59;67.63;97546.09;108873;1249;100072;-75
2023/05/28 06:47:18;;;;;;;8.90;5.50;;;;;;;11.74;67.76;97545.80;108862;1250;94438;-78
2023/05/28 06:49:46;;;;;;;9.00;4.80;;;;;;;11.90;67.60;97543.82;108866;1250;94662;-74
2023/05/28 06:52:15;;;;;;;13.30;5.00;;;;;;;12.05;67.56;97542.27;108774;1249;102115;-75
2023/05/28 06:54:43;;;;;;;10.50;4.90;;;;;;;12.19;67.12;97540.98;108854;1249;101383;-76
2023/05/28 06:57:11;;;;;;;9.00;5.20;;;;;;;12.31;66.82;97539.31;108885;1249;100256;-75
2023/05/28 06:59:39;;;;;;;9.30;4.40;;;;;;;12.44;66.25;97535.85;108707;1253;94481;-75
2023/05/28 07:02:07;;;;;;;9.70;4.10;;;;;;;12.56;65.83;97533.54;108936;1249;94640;-74
2023/05/28 07:04:36;;;;;;;6.70;4.10;;;;;;;12.70;65.88;97531.71;108915;1249;101809;-75
2023/05/28 07:07:04;;;;;;;10.40;4.60;;;;;;;12.82;65.14;97526.45;108879;1249;101469;-75
2023/05/28 07:09:32;;;;;;;12.70;4.30;;;;;;;12.95;65.44;97521.73;108850;1250;99009;-74
2023/05/28 07:12:01;;;;;;;7.20;4.60;;;;;;;13.10;65.28;97520.27;108722;1249;94262;-76
2023/05/28 07:14:29;;;;;;;9.40;5.00;;;;;;;13.25;65.31;97517.66;108883;1249;94621;-74
2023/05/28 07:16:57;;;;;;;7.40;4.80;;;;;;;13.42;65.08;97515.16;108884;1250;101141;-76
2023/05/28 07:19:26;;;;;;;7.00;4.50;;;;;;;13.57;64.46;97510.90;108897;1249;101070;-75
2023/05/28 07:21:54;;;;;;;7.10;4.40;;;;;;;13.71;63.96;97509.93;108626;1250;99844;-78
2023/05/28 07:24:22;;;;;;;10.50;4.10;;;;;;;13.84;63.31;97509.75;108889;1250;94523;-76
2023/05/28 07:26:50;;;;;;;8.20;3.80;;;;;;;13.97;62.87;97502.98;108880;1249;94654;-76
2023/05/28 07:29:18;;;;;;;7.70;3.90;;;;;;;14.11;62.73;97503.79;108896;1249;102418;-74
2023/05/28 07:31:46;;;;;;;6.60;3.40;;;;;;;14.27;62.36;97500.41;108954;1250;101356;-75
2023/05/28 07:34:14;;;;;;;5.40;3.10;;;;;;;14.45;62.36;97498.98;108829;1250;100417;-75
2023/05/28 07:36:43;;;;;;;7.30;3.30;;;;;;;14.63;61.31;97496.02;108879;1249;94502;-78
2023/05/28 07:39:11;;;;;;;20.50;4.30;;;;;;;14.78;60.60;97493.13;108895;1249;94726;-75
2023/05/28 07:41:39;;;;;;;9.00;3.70;;;;;;;14.96;60.78;97496.73;108887;1249;101827;-78
2023/05/28 07:44:08;;;;;;;6.30;3.00;;;;;;;15.15;60.50;97492.19;108889;1250;101500;-75
2023/05/28 07:46:37;;;;;;;6.20;3.10;;;;;;;15.36;59.96;97484.53;108864;1249;99947;-76
2023/05/28 07:49:05;;;;;;;7.50;2.50;;;;;;;15.65;59.34;97476.71;108461;1251;94867;-75
2023/05/28 07:51:33;;;;;;;5.10;2.50;;;;;;;16.04;59.21;97474.31;108850;1250;94587;-74
2023/05/28 07:54:02;;;;;;;4.20;2.40;;;;;;;16.53;59.09;97478.78;108867;1250;101265;-74
2023/05/28 07:56:30;;;;;;;7.20;3.00;;;;;;;17.08;58.03;97477.84;108868;1250;100284;-74
2023/05/28 07:58:58;;;;;;;4.80;2.90;;;;;;;17.60;57.13;97471.40;108915;1249;100202;-77
2023/05/28 08:01:27;;;;;;;4.60;2.90;;;;;;;18.07;56.13;97467.02;108534;1251;94613;-74
2023/05/28 08:03:55;;;;;;;4.80;2.60;;;;;;;18.54;55.47;97466.65;108896;1250;94242;-78
2023/05/28 08:06:23;;;;;;;6.00;2.50;;;;;;;19.03;54.59;97459.44;108835;1250;102118;-74
2023/05/28 08:08:51;;;;;;;6.90;2.70;;;;;;;19.47;53.15;97456.64;108933;1249;100988;-77
2023/05/28 08:11:19;;;;;;;6.10;2.40;;;;;;;19.83;51.60;97457.23;108684;1251;99851;-76
2023/05/28 08:13:48;;;;;;;5.50;2.80;;;;;;;20.11;50.91;97456.80;108858;1251;94178;-74
2023/05/28 08:16:16;;;;;;;4.80;2.40;;;;;;;20.44;50.29;97459.02;108681;1250;95285;-75
2023/05/28 08:18:44;;;;;;;5.60;2.50;;;;;;;20.77;49.26;97456.27;108789;1251;100919;-75
2023/05/28 08:21:13;;;;;;;4.10;2.50;;;;;;;21.13;48.92;97454.00;108890;1249;101135;-74
2023/05/28 08:23:41;;;;;;;6.90;2.70;;;;;;;21.48;48.12;97454.19;108892;1249;100020;-74
2023/05/28 08:26:09;;;;;;;4.40;2.60;;;;;;;21.79;47.35;97456.27;108885;1250;94204;-74
2023/05/28 08:28:37;;;;;;;7.60;2.40;;;;;;;22.06;46.16;97453.06;108909;1250;94487;-75
2023/05/28 08:31:05;;;;;;;7.20;2.50;;;;;;;22.32;45.22;97449.61;108914;1249;103043;-76
2023/05/28 08:33:33;;;;;;;3.20;2.10;;;;;;;22.63;44.55;97447.08;108962;1249;101617;-78
2023/05/28 08:36:02;;;;;;;5.00;2.60;;;;;;;23.00;44.26;97443.52;108891;1249;99937;-77
2023/05/28 08:38:30;;;;;;;6.80;2.10;;;;;;;23.37;43.90;97442.05;108877;1249;94196;-75
2023/05/28 08:40:59;;;;;;;5.40;2.30;;;;;;;23.61;43.10;97438.19;108882;1249;94258;-75
2023/05/28 08:43:27;;;;;;;4.60;1.90;;;;;;;23.87;42.35;97439.23;108826;1249;101219;-77
2023/05/28 08:45:59;;;;;;;3.80;2.20;;;;;;;24.17;41.71;97440.44;108886;1249;101352;-75
2023/05/28 08:48:32;;;;;;;4.90;2.20;;;;;;;24.47;41.09;97435.19;108923;1249;100094;-77
2023/05/28 08:51:02;;;;;;;7.40;2.40;;;;;;;24.73;40.36;97436.05;108897;1249;94340;-78
2023/05/28 08:53:38;;;;;;;5.40;2.20;;;;;;;25.01;40.02;97435.54;108936;1249;94371;-75
2023/05/28 08:56:09;;;;;;;4.80;2.10;;;;;;;25.30;39.60;97433.11;108731;1250;102091;-75
2023/05/28 08:58:38;;;;;;;4.10;2.40;;;;;;;25.61;39.40;97426.61;108923;1249;100977;-76
2023/05/28 09:01:07;;;;;;;5.50;2.20;;;;;;;25.86;38.68;97421.02;108862;1250;99929;-75
2023/05/28 09:03:36;;;;;;;3.70;2.00;;;;;;;26.07;37.79;97423.73;108887;1250;94180;-75
2023/05/28 09:06:04;;;;;;;3.60;2.10;;;;;;;26.20;37.24;97422.84;108907;1249;94288;-75
2023/05/28 09:08:33;;;;;;;5.40;2.10;;;;;;;26.38;37.00;97422.40;108749;1249;102094;-77
2023/05/28 09:11:12;;;;;;;4.00;2.40;;;;;;;26.51;36.97;97422.42;108916;1249;101769;-79
2023/05/28 09:13:45;;;;;;;5.30;1.80;;;;;;;26.66;36.34;97418.34;108779;1249;99674;-75
2023/05/28 09:16:24;;;;;;;4.00;2.40;;;;;;;26.84;36.17;97413.44;108614;1250;94238;-75
2023/05/28 09:19:02;;;;;;;5.60;2.30;;;;;;;26.87;36.02;97412.86;108958;1249;95040;-75
2023/05/28 09:21:31;;;;;;;4.20;2.10;;;;;;;27.03;35.32;97416.24;108760;1250;102115;-78
2023/05/28 09:24:04;;;;;;;6.00;2.00;;;;;;;27.16;34.64;97414.14;108913;1249;101524;-75
2023/05/28 09:26:33;;;;;;;3.70;2.20;;;;;;;27.11;33.89;97412.05;108783;1250;99620;-75
2023/05/28 09:29:02;;;;;;;3.50;2.20;;;;;;;27.10;33.89;97410.69;108674;1250;94496;-76
2023/05/28 09:31:32;;;;;;;2.50;2.10;;;;;;;27.07;33.68;97412.34;108880;1249;94541;-75
2023/05/28 09:34:05;;;;;;;3.50;2.20;;;;;;;27.11;33.61;97411.96;108926;1249;102137;-75
2023/05/28 09:36:36;;;;;;;3.70;2.50;;;;;;;27.20;33.29;97406.66;108905;1249;101235;-75
2023/05/28 09:39:08;;;;;;;5.50;2.20;;;;;;;27.23;33.38;97403.91;108883;1249;98560;-77
2023/05/28 09:41:43;;;;;;;5.10;2.20;;;;;;;27.34;33.35;97405.33;108892;1249;94230;-75
2023/05/28 09:44:12;;;;;;;3.40;2.10;;;;;;;27.41;32.98;97401.86;108960;1249;94313;-76
2023/05/28 09:46:47;;;;;;;2.70;2.10;;;;;;;27.42;32.01;97398.50;108937;1249;102217;-75
2023/05/28 09:49:15;;;;;;;3.50;2.50;;;;;;;27.32;32.30;97397.35;108667;1250;99009;-75
2023/05/28 09:51:48;;;;;;;3.50;2.30;;;;;;;27.33;32.12;97399.31;108473;1251;193189;-75
2023/05/28 09:54:17;;;;;;;7.00;2.10;;;;;;;27.29;31.74;97395.38;108872;1249;94153;-75
2023/05/28 09:56:48;;;;;;;4.50;2.60;;;;;;;27.20;31.47;97388.80;108942;1249;94380;-76
2023/05/28 09:59:19;;;;;;;3.60;2.20;;;;;;;27.16;31.72;97389.77;108908;1249;101905;-78
2023/05/28 10:02:26;;;;;;;4.60;2.20;;;;;;;27.18;31.63;97389.64;108895;1249;100398;-75
2023/05/28 10:04:55;;;;;;;5.20;2.30;;;;;;;27.15;31.74;97389.10;108825;1249;99922;-78
2023/05/28 10:07:27;;;;;;;5.10;2.30;;;;;;;27.13;31.98;97380.69;108875;1249;94182;-75
2023/05/28 10:09:57;;;;;;;7.40;3.00;;;;;;;27.18;31.43;97374.73;108874;1249;94250;-75
2023/05/28 10:12:29;;;;;;;4.30;2.50;;;;;;;27.13;31.10;97377.88;108927;1249;102175;-75
2023/05/28 10:14:58;;;;;;;18.80;3.30;;;;;;;27.15;30.77;97379.69;108951;1249;101548;-75
2023/05/28 10:17:26;;;;;;;4.10;2.10;;;;;;;27.25;31.24;97380.02;108895;1249;108296;-75
2023/05/28 10:19:54;;;;;;;9.50;2.40;;;;;;;27.34;31.15;97376.08;108620;1251;94619;-75
2023/05/28 10:22:23;;;;;;;5.30;2.60;;;;;;;27.32;31.50;97372.84;108615;1251;94608;-75
2023/05/28 10:24:52;;;;;;;6.10;2.50;;;;;;;27.36;31.66;97370.80;108530;1256;102460;-75
2023/05/28 10:27:20;;;;;;;7.50;2.50;;;;;;;27.44;30.91;97371.34;108879;1249;100586;-76
2023/05/28 10:29:48;;;;;;;4.90;2.30;;;;;;;27.49;31.00;97368.53;108911;1249;99949;-75
2023/05/28 10:32:17;;;;;;;4.80;2.40;;;;;;;27.53;31.21;97369.52;108868;1249;94155;-75
2023/05/28 10:34:45;;;;;;;3.40;2.70;;;;;;;27.65;31.31;97369.09;108974;1250;94283;-75
2023/05/28 10:37:14;;;;;;;4.50;2.60;;;;;;;27.77;30.85;97368.95;108692;1250;100937;-74
2023/05/28 10:39:45;;;;;;;2.40;2.10;;;;;;;27.78;30.98;97368.27;108949;1249;101191;-75
2023/05/28 10:42:20;;;;;;;6.00;2.70;;;;;;;27.73;30.25;97361.70;108865;1249;100446;-75
2023/05/28 10:45:01;;;;;;;5.10;2.70;;;;;;;27.49;30.28;97364.65;108530;1251;94241;-77
2023/05/28 10:47:39;;;;;;;7.60;2.80;;;;;;;27.44;31.11;97362.41;108902;1249;94230;-75
2023/05/28 10:50:10;;;;;;;7.00;2.50;;;;;;;27.51;31.14;97362.38;108919;1249;102210;-75
2023/05/28 10:52:39;;;;;;;6.70;2.90;;;;;;;27.59;31.20;97361.55;108935;1249;101192;-76
2023/05/28 10:55:10;;;;;;;4.20;2.40;;;;;;;27.59;30.92;97359.29;108885;1250;99619;-75
2023/05/28 10:57:47;;;;;;;5.60;2.90;;;;;;;27.63;30.96;97355.59;108894;1249;94244;-77
2023/05/28 11:00:26;;;;;;;6.10;2.70;;;;;;;27.64;30.69;97351.70;108924;1249;94236;-75
2023/05/28 11:02:54;;;;;;;4.30;2.60;;;;;;;27.58;30.80;97355.96;108725;1249;102227;-75
2023/05/28 11:05:26;;;;;;;3.70;2.60;;;;;;;27.59;30.50;97354.40;108898;1249;101295;-75
2023/05/28 11:07:56;;;;;;;4.80;2.90;;;;;;;27.58;30.97;97352.60;108862;1249;99813;-77
2023/05/28 11:10:25;;;;;;;4.70;2.40;;;;;;;27.68;30.51;97348.31;108903;1249;94515;-74
2023/05/28 11:12:54;;;;;;;5.70;2.70;;;;;;;27.65;29.95;97346.89;108937;1249;95038;-75
2023/05/28 11:15:23;;;;;;;5.10;2.60;;;;;;;27.65;29.94;97347.14;108951;1249;102267;-75
2023/05/28 11:17:51;;;;;;;3.00;2.60;;;;;;;27.66;30.39;97341.47;108943;1249;101002;-77
2023/05/28 11:20:24;;;;;;;6.20;2.50;;;;;;;27.72;30.88;97346.30;108870;1249;99926;-76
2023/05/28 11:22:53;;;;;;;3.30;2.80;;;;;;;27.84;30.57;97346.78;108870;1249;94216;-75
2023/05/28 11:25:25;;;;;;;8.10;2.90;;;;;;;27.94;30.58;97345.52;108920;1250;94269;-77
2023/05/28 11:27:57;;;;;;;6.50;2.40;;;;;;;28.06;30.42;97349.80;108916;1249;102212;-75
2023/05/28 11:30:25;;;;;;;4.00;2.60;;;;;;;28.08;30.66;97349.02;108928;1249;101264;-75